Latest Weather Observations for Kununurra Airport

IDW60801

Issued at 9:32 am WST Saturday 30 April 2016 (issued every 30 minutes, with the page automatically refreshed every 10 minutes)

About weather observations | Map of weather stations | Latest weather observations for WA | Other Formats
Station Details ID: 002056 Name: KUNUNURRA AERO Lat: -15.78 Lon: 128.71 Height: 44.0 m
Data from the previous 72 hours. | See also: Recent months at Kununurra Airport
Date/Time
WST
Temp
°C
App
Temp
°C
Dew
Point
Rel
Hum
%
Delta-T
°C
Wind Press
QNH
hPa
Press
MSL
hPa
Rain
since 9 am
mm
Dir
 
Spd
km/h
Gust
km/h
Spd
kts
Gust
kts
30/09:30am 33.3 35.7 20.1 45 8.8 ENE 7 13 4 7 1013.2 1012.9 0.0
30/09:00am 31.7 33.9 19.3 47 8.1 NNW 6 9 3 5 1013.5 1013.2 0.0
30/08:30am 29.9 32.5 20.5 57 6.2 NE 7 11 4 6 1013.6 1013.3 0.0
30/08:00am 28.6 32.7 22.3 68 4.3 N 4 9 2 5 1013.4 1013.1 0.0
30/07:30am 26.5 31.2 22.6 79 2.6 SW 2 6 1 3 1013.3 1013.0 0.0
30/07:00am 25.2 29.8 21.7 81 2.3 CALM 0 0 0 0 1013.1 1012.8 0.0
30/06:30am 24.9 29.7 22.2 85 1.8 CALM 0 0 0 0 1012.8 1012.5 0.0
30/06:00am 22.3 26.4 20.8 91 1.0 CALM 0 0 0 0 1012.5 1012.2 0.0
30/05:30am 21.3 25.2 20.3 94 0.6 CALM 0 0 0 0 1012.1 1011.8 0.0
30/05:00am 22.1 25.1 21.3 95 0.5 E 7 9 4 5 1011.7 1011.4 0.0
30/04:30am 21.8 24.9 21.1 96 0.5 SW 6 9 3 5 1011.3 1011.0 0.0
30/04:00am 21.4 24.3 20.6 95 0.5 SW 6 9 3 5 1011.2 1010.9 0.0
30/03:30am 21.1 24.8 19.9 93 0.8 CALM 0 0 0 0 1011.0 1010.7 0.0
30/03:00am 21.5 24.6 20.3 93 0.8 NE 4 11 2 6 1010.9 1010.6 0.0
30/02:30am 21.0 23.9 19.8 93 0.8 NW 4 9 2 5 1010.8 1010.5 0.0
30/02:00am 21.3 23.9 20.5 95 0.5 SW 7 9 4 5 1010.7 1010.4 0.0
30/01:30am 22.3 26.2 21.1 93 0.8 SSE 2 7 1 4 1010.8 1010.5 0.0
30/01:00am 21.9 25.2 20.0 89 1.2 SSE 2 6 1 3 1011.0 1010.7 0.0
30/12:30am 22.9 25.8 21.0 89 1.2 ESE 7 9 4 5 1011.1 1010.8 0.0
30/12:00am 23.2 26.8 21.3 89 1.3 E 4 11 2 6 1011.3 1011.0 0.0
 
Date/Time
WST
Temp
°C
App
Temp
°C
Dew
Point
Rel
Hum
%
Delta-T
°C
Wind Press
QNH
hPa
Press
MSL
hPa
Rain
since 9 am
mm
Dir
 
Spd
km/h
Gust
km/h
Spd
kts
Gust
kts
29/11:30pm 22.7 26.7 20.6 88 1.4 CALM 0 2 0 1 1011.6 1011.3 0.0
29/11:00pm 23.7 27.5 20.2 81 2.3 CALM 0 0 0 0 1011.9 1011.6 0.0
29/10:30pm 23.8 27.3 20.3 81 2.3 S 2 7 1 4 1012.2 1011.9 0.0
29/10:00pm 24.5 27.5 20.8 80 2.4 S 6 9 3 5 1012.4 1012.1 0.0
29/09:30pm 25.5 28.5 20.1 72 3.5 NE 4 7 2 4 1012.4 1012.1 0.0
29/09:00pm 25.3 28.2 19.9 72 3.5 N 4 7 2 4 1012.4 1012.1 0.0
29/08:30pm 26.9 28.4 20.5 68 4.2 N 13 13 7 7 1012.4 1012.1 0.0
29/08:00pm 27.3 28.4 20.4 66 4.5 NNE 15 17 8 9 1012.3 1012.0 0.0
29/07:30pm 27.8 28.6 19.8 61 5.2 NNE 15 15 8 8 1012.1 1011.8 0.0
29/07:00pm 27.9 28.6 19.7 61 5.3 NNE 15 20 8 11 1011.7 1011.4 0.0
29/06:30pm 27.8 31.2 19.3 60 5.5 CALM 0 0 0 0 1011.0 1010.7 0.0
29/06:00pm 28.3 32.1 20.1 61 5.4 CALM 0 0 0 0 1010.7 1010.4 0.0
29/05:30pm 30.8 33.5 19.5 51 7.4 S 4 7 2 4 1010.4 1010.1 0.0
29/05:00pm 32.4 34.2 18.2 42 9.2 S 6 7 3 4 1010.1 1009.8 0.0
29/04:30pm 35.2 35.7 15.0 30 12.6 SSW 6 7 3 4 1009.7 1009.4 0.0
29/04:00pm 35.7 35.8 14.4 28 13.2 S 7 9 4 5 1009.5 1009.2 0.0
29/03:30pm 36.1 36.7 15.8 30 12.8 SSE 7 11 4 6 1009.3 1009.0 0.0
29/03:00pm 36.2 36.2 14.2 26 13.6 N 7 11 4 6 1009.3 1009.0 0.0
29/02:30pm 36.1 35.9 14.7 28 13.3 NNE 9 15 5 8 1009.3 1009.0 0.0
29/02:00pm 36.2 35.8 15.3 28 13.2 E 11 17 6 9 1009.3 1009.0 0.0
29/01:30pm 36.0 36.0 15.2 29 13.0 SE 9 15 5 8 1009.5 1009.2 0.0
29/01:00pm 36.4 36.3 16.0 29 13.0 E 11 17 6 9 1009.8 1009.5 0.0
29/12:30pm 36.2 36.1 15.9 30 12.9 N 11 17 6 9 1010.3 1010.0 0.0
29/12:00pm 35.6 36.0 16.4 32 12.2 NNE 9 19 5 10 1010.8 1010.5 0.0
29/11:30am 35.2 35.9 17.9 36 11.2 NNE 11 19 6 10 1011.3 1011.0 0.0
29/11:00am 35.2 36.0 17.4 34 11.5 N 9 20 5 11 1011.9 1011.6 0.0
29/10:30am 33.8 36.1 19.5 43 9.5 ENE 6 11 3 6 1012.5 1012.2 0.0
29/10:00am 33.2 35.6 19.7 45 8.9 S 6 9 3 5 1013.2 1012.9 0.0
29/09:30am 32.0 34.2 19.3 47 8.3 SE 6 11 3 6 1013.5 1013.2 0.0
29/09:00am 30.7 33.3 20.0 52 7.1 SE 6 7 3 4 1013.6 1013.3 0.0
29/08:30am 29.9 33.6 20.7 57 6.1 E 2 6 1 3 1013.8 1013.5 0.0
29/08:00am 27.0 29.1 19.4 63 4.9 ESE 7 11 4 6 1013.8 1013.5 0.0
29/07:30am 27.1 30.1 20.9 69 4.1 SE 6 7 3 4 1013.6 1013.3 0.0
29/07:00am 25.2 28.8 20.5 75 3.1 SSE 2 6 1 3 1013.3 1013.0 0.0
29/06:30am 23.3 26.7 21.6 90 1.1 ESE 6 15 3 8 1013.0 1012.7 0.0
29/06:00am 21.8 25.4 19.7 88 1.3 CALM 0 0 0 0 1012.6 1012.3 0.0
29/05:30am 21.2 24.8 19.7 91 1.0 CALM 0 0 0 0 1012.3 1012.0 0.0
29/05:00am 20.7 24.3 19.7 94 0.6 CALM 0 0 0 0 1011.9 1011.6 0.0
29/04:30am 20.9 24.3 19.4 91 1.0 CALM 0 0 0 0 1011.6 1011.3 0.0
29/04:00am 20.8 23.5 18.7 88 1.3 ESE 2 7 1 4 1011.4 1011.1 0.0
29/03:30am 20.9 23.3 19.6 92 0.8 S 6 7 3 4 1011.2 1010.9 0.0
29/03:00am 20.8 24.2 19.3 91 1.0 CALM 0 6 0 3 1011.0 1010.7 0.0
29/02:30am 21.6 24.9 19.2 86 1.5 CALM 0 0 0 0 1010.9 1010.6 0.0
29/02:00am 22.0 24.2 20.5 91 1.0 ESE 9 11 5 6 1011.0 1010.7 0.0
29/01:30am 21.9 25.1 18.9 83 1.9 CALM 0 0 0 0 1011.0 1010.7 0.0
29/01:00am 21.6 25.0 19.3 87 1.5 CALM 0 0 0 0 1011.0 1010.7 0.0
29/12:30am 22.0 25.5 19.5 86 1.6 CALM 0 0 0 0 1011.0 1010.7 0.0
29/12:00am 22.4 25.3 18.2 77 2.6 CALM 0 0 0 0 1011.3 1011.0 0.0
 
Date/Time
WST
Temp
°C
App
Temp
°C
Dew
Point
Rel
Hum
%
Delta-T
°C
Wind Press
QNH
hPa
Press
MSL
hPa
Rain
since 9 am
mm
Dir
 
Spd
km/h
Gust
km/h
Spd
kts
Gust
kts
28/11:30pm 23.1 26.5 19.3 79 2.4 CALM 0 0 0 0 1011.4 1011.1 0.0
28/11:00pm 23.2 27.0 20.2 83 1.9 CALM 0 0 0 0 1011.6 1011.3 0.0
28/10:30pm 23.1 26.5 19.3 79 2.4 CALM 0 0 0 0 1011.9 1011.6 0.0
28/10:00pm 24.4 27.1 18.6 70 3.7 SW 2 6 1 3 1012.1 1011.8 0.0
28/09:30pm 25.2 27.1 18.9 68 4.0 NE 7 9 4 5 1012.1 1011.8 0.0
28/09:07pm 25.6 28.5 18.3 64 4.6 CALM 0 0 0 0 1012.1 1011.8 0.0
28/09:00pm 25.7 28.8 18.6 65 4.5 CALM 0 0 0 0 1012.1 1011.8 0.0
28/08:48pm 25.5 27.1 18.2 64 4.6 N 7 9 4 5 1012.1 1011.8 0.0
28/08:30pm 26.3 28.5 18.4 61 5.0 NNE 4 7 2 4 1012.0 1011.7 0.0
28/08:00pm 25.6 27.3 18.5 65 4.5 NNW 7 9 4 5 1011.9 1011.6 0.0
28/07:30pm 26.0 27.5 18.9 65 4.5 NNW 9 11 5 6 1011.6 1011.3 0.0
28/07:00pm 26.6 27.4 18.2 60 5.3 NNW 11 13 6 7 1011.3 1011.0 0.0
28/06:30pm 27.9 28.6 18.9 58 5.8 N 13 15 7 8 1010.8 1010.5 0.0
28/06:00pm 27.8 30.1 19.8 61 5.2 NNW 7 9 4 5 1010.4 1010.1 0.0
28/05:30pm 29.1 32.8 20.0 58 6.0 CALM 0 0 0 0 1010.0 1009.7 0.0
28/05:00pm 31.6 33.5 18.6 46 8.4 NNE 6 9 3 5 1009.8 1009.5 0.0
28/04:30pm 34.3 36.1 17.5 36 10.8 SW 4 6 2 3 1009.4 1009.1 0.0
28/04:00pm 34.8 35.9 16.6 33 11.6 WSW 6 9 3 5 1009.3 1009.0 0.0
28/03:30pm 34.8 35.7 16.6 33 11.6 S 7 11 4 6 1009.1 1008.8 0.0
28/03:00pm 35.1 35.9 16.4 32 11.9 NE 7 11 4 6 1009.2 1008.9 0.0
28/02:30pm 35.8 36.1 16.0 30 12.6 N 9 13 5 7 1009.0 1008.7 0.0
28/02:00pm 34.8 35.0 15.7 32 12.0 WNW 9 17 5 9 1009.1 1008.8 0.0
28/01:30pm 34.5 34.6 16.4 34 11.5 N 11 15 6 8 1009.3 1009.0 0.0
28/01:00pm 35.3 35.8 16.6 33 12.0 NNE 9 15 5 8 1009.5 1009.2 0.0
28/12:30pm 35.3 35.8 16.6 33 11.9 NE 9 15 5 8 1009.8 1009.5 0.0
28/12:00pm 35.7 35.6 16.9 32 12.1 NE 13 24 7 13 1010.1 1009.8 0.0
28/11:30am 34.5 35.1 16.8 34 11.3 NNE 9 13 5 7 1010.6 1010.3 0.0
28/11:00am 34.8 33.4 16.6 33 11.6 NE 19 28 10 15 1011.2 1010.9 0.0
28/10:30am 33.6 32.9 16.5 36 10.8 ENE 15 20 8 11 1011.4 1011.1 0.0
28/10:00am 33.9 33.1 17.2 37 10.7 ENE 17 24 9 13 1012.0 1011.7 0.0
28/09:30am 33.0 33.9 17.6 40 9.9 NNE 9 13 5 7 1012.1 1011.8 0.0
28/09:00am 31.8 33.6 18.7 45 8.5 SE 7 11 4 6 1012.3 1012.0 0.0
28/08:30am 30.6 31.9 17.0 44 8.6 S 6 9 3 5 1012.5 1012.2 0.0
28/08:00am 28.2 29.4 17.4 52 6.8 SW 7 11 4 6 1012.4 1012.1 0.0
28/07:30am 27.8 30.1 18.5 57 6.0 SE 4 7 2 4 1012.2 1011.9 0.0
28/07:00am 26.6 29.1 18.2 60 5.3 E 2 6 1 3 1011.8 1011.5 0.0
28/06:30am 24.1 27.4 19.0 73 3.3 CALM 0 0 0 0 1011.5 1011.2 0.0
28/06:00am 22.5 26.0 19.5 83 1.9 CALM 0 0 0 0 1011.0 1010.7 0.0
28/05:30am 22.9 26.2 19.1 79 2.4 CALM 0 6 0 3 1010.6 1010.3 0.0
28/05:00am 22.0 24.2 19.2 84 1.8 SW 6 7 3 4 1010.3 1010.0 0.0
28/04:30am 23.0 25.0 18.7 77 2.7 SSE 6 9 3 5 1010.1 1009.8 0.0
28/04:00am 22.7 26.3 19.7 83 1.9 CALM 0 0 0 0 1009.8 1009.5 0.0
28/03:30am 22.5 26.0 19.5 83 1.9 CALM 0 0 0 0 1009.7 1009.4 0.0
28/03:00am 23.2 26.5 19.2 78 2.6 CALM 0 2 0 1 1009.7 1009.4 0.0
28/02:30am 23.0 26.0 18.5 76 2.8 CALM 0 0 0 0 1009.6 1009.3 0.0
28/02:00am 21.8 25.1 19.0 84 1.8 CALM 0 0 0 0 1009.6 1009.3 0.0
28/01:30am 21.6 24.9 19.0 85 1.6 CALM 0 2 0 1 1009.6 1009.3 0.0
28/01:00am 22.9 26.5 19.7 82 2.1 CALM 0 0 0 0 1009.6 1009.3 0.0
28/12:30am 23.2 26.6 19.4 79 2.4 CALM 0 0 0 0 1009.7 1009.4 0.0
28/12:00am 23.7 27.1 19.4 77 2.8 CALM 0 0 0 0 1010.0 1009.7 0.0
 
Date/Time
WST
Temp
°C
App
Temp
°C
Dew
Point
Rel
Hum
%
Delta-T
°C
Wind Press
QNH
hPa
Press
MSL
hPa
Rain
since 9 am
mm
Dir
 
Spd
km/h
Gust
km/h
Spd
kts
Gust
kts
27/11:30pm 23.7 26.2 19.0 75 3.0 SSE 4 7 2 4 1010.2 1009.9 0.0
27/11:00pm 22.7 25.5 18.0 75 2.9 CALM 0 0 0 0 1010.3 1010.0 0.0
27/10:30pm 23.7 26.1 17.0 66 4.1 CALM 0 0 0 0 1010.4 1010.1 0.0
27/10:00pm 24.8 27.4 17.5 64 4.6 CALM 0 2 0 1 1010.7 1010.4 0.0
27/09:30pm 23.9 25.4 18.1 70 3.6 NW 7 9 4 5 1010.8 1010.5 0.0
27/09:00pm 23.4 25.2 18.3 73 3.2 NE 6 15 3 8 1010.8 1010.5 0.0
27/08:30pm 24.6 27.9 19.2 72 3.5 CALM 0 0 0 0 1010.9 1010.6 0.0
27/08:00pm 26.1 29.3 18.8 64 4.7 CALM 0 0 0 0 1010.7 1010.4 0.0
27/07:30pm 27.2 30.2 18.5 59 5.6 CALM 0 0 0 0 1010.5 1010.2 0.0
27/07:00pm 27.9 30.1 18.3 56 6.1 ESE 4 7 2 4 1010.3 1010.0 0.0
27/06:30pm 29.5 30.7 17.3 47 7.7 S 7 9 4 5 1010.1 1009.8 0.0
27/06:00pm 28.9 31.2 19.8 58 6.0 SSE 7 9 4 5 1009.7 1009.4 0.0
27/05:30pm 30.0 32.0 19.1 52 7.1 SSE 7 9 4 5 1009.4 1009.1 0.0
27/05:00pm 32.8 34.0 17.4 39 9.9 SSE 7 9 4 5 1009.1 1008.8 0.0
27/04:30pm 34.7 35.0 16.1 33 11.8 SSE 9 11 5 6 1008.9 1008.6 0.0
27/04:00pm 35.4 35.0 14.1 28 13.1 S 9 11 5 6 1008.8 1008.5 0.0
27/03:30pm 35.6 35.3 14.3 28 13.2 S 9 13 5 7 1008.6 1008.3 0.0
27/03:00pm 35.9 34.7 14.0 27 13.5 SE 13 15 7 8 1008.6 1008.3 0.0
27/02:30pm 37.1 36.3 15.0 27 13.9 SSE 13 22 7 12 1008.5 1008.2 0.0
27/02:00pm 36.5 35.1 13.3 25 14.2 SSE 13 17 7 9 1008.5 1008.2 0.0
27/01:30pm 36.5 35.1 13.3 25 14.2 ESE 13 24 7 13 1008.6 1008.3 0.0
27/01:00pm 36.0 34.6 13.5 26 13.8 SSE 13 20 7 11 1008.9 1008.6 0.0
27/12:30pm 36.0 36.0 13.5 26 13.8 ESE 6 13 3 7 1009.4 1009.1 0.0
27/12:00pm 36.2 35.5 14.2 26 13.6 SSE 11 17 6 9 1009.8 1009.5 0.0
27/11:30am 35.5 34.4 14.2 28 13.2 SE 13 19 7 10 1010.3 1010.0 0.0
27/11:00am 34.6 33.4 14.0 29 12.7 SE 13 19 7 10 1010.7 1010.4 0.0
27/10:30am 33.7 32.2 14.2 30 12.0 SSE 15 20 8 11 1011.3 1011.0 0.0
27/10:00am 32.2 31.8 15.2 35 10.5 S 11 15 6 8 1012.0 1011.7 0.0

Other Formats:

Comma delimited format used in spreadsheet applications
http://www.bom.gov.au/fwo/IDW60801/IDW60801.94216.axf

JavaScript Object Notation format (JSON) in row-major order
http://www.bom.gov.au/fwo/IDW60801/IDW60801.94216.json